Terminal Aerodrome Forecast
Issued by NWS

Home | Current Version | Previous Version | Text Only | Print | Product List | Glossary On
Versions: 1 2 3 4 5 6 7 8 9 10 11 12 13 14 15
000
FTUS46 KSEW 251452 AAA
TAFHQM
TAF AMD
KHQM 251452Z 2515/2612 26008KT P6SM FEW020
     FM252000 26014KT P6SM SCT200
     FM260700 24010KT P6SM OVC022
     FM261100 24010KT 4SM -DZ OVC015=

USA.gov is the U.S. government's official web portal to all federal, state and local government web resources and services.